createdAt,value
2022-12-27T00:01:32.719Z,2.70
2022-12-27T00:06:42.893Z,3.20
2022-12-27T00:11:57.978Z,3.30
2022-12-27T00:17:09.462Z,3.40
2022-12-27T00:22:19.175Z,4.20
2022-12-27T00:27:29.067Z,3.30
2022-12-27T00:32:38.647Z,4.40
2022-12-27T00:37:48.345Z,4.40
2022-12-27T00:42:57.917Z,2.30
2022-12-27T00:48:08.392Z,2.60
2022-12-27T00:53:18.319Z,1.30
2022-12-27T00:58:28.429Z,2.10
2022-12-27T01:03:38.334Z,2.00
2022-12-27T01:08:48.901Z,2.00
2022-12-27T01:14:00.659Z,3.20
2022-12-27T01:19:10.412Z,4.70
2022-12-27T01:24:20.073Z,4.30
2022-12-27T01:29:29.695Z,2.40
2022-12-27T01:34:40.331Z,2.30
2022-12-27T01:39:50.156Z,3.70
2022-12-27T01:45:01.569Z,4.50
2022-12-27T01:50:25.055Z,6.10
2022-12-27T01:55:42.795Z,8.30
2022-12-27T02:00:54.180Z,4.00
2022-12-27T02:06:07.553Z,2.30
2022-12-27T02:11:39.233Z,4.60
2022-12-27T02:16:49.204Z,5.00
2022-12-27T02:22:53.753Z,9.60
2022-12-27T02:28:24.929Z,10.70
2022-12-27T02:33:45.430Z,8.10
2022-12-27T02:39:01.445Z,6.70
2022-12-27T02:44:29.330Z,3.90
2022-12-27T02:50:07.839Z,5.60
2022-12-27T02:56:04.815Z,2.60
2022-12-27T03:01:46.675Z,4.40
2022-12-27T03:07:26.909Z,4.10
2022-12-27T03:13:11.913Z,5.00
2022-12-27T03:18:35.812Z,5.80
2022-12-27T03:24:06.875Z,8.00
2022-12-27T03:29:37.017Z,5.00
2022-12-27T03:34:55.446Z,3.60
2022-12-27T03:40:13.056Z,18.30
2022-12-27T03:45:45.721Z,6.20
2022-12-27T03:51:05.346Z,4.50
2022-12-27T03:56:16.075Z,6.40
2022-12-27T04:01:25.882Z,8.20
2022-12-27T04:06:35.468Z,7.40
2022-12-27T04:12:02.495Z,6.50
2022-12-27T04:17:29.769Z,7.50
2022-12-27T04:22:56.769Z,7.20
2022-12-27T04:28:24.004Z,4.80
2022-12-27T04:33:51.381Z,5.50
2022-12-27T04:39:01.009Z,9.10
2022-12-27T04:44:28.219Z,5.60
2022-12-27T04:49:56.918Z,5.00
2022-12-27T04:55:21.121Z,6.50
2022-12-27T05:01:02.318Z,6.70
2022-12-27T05:06:13.227Z,5.80
2022-12-27T05:11:40.602Z,2.70
2022-12-27T05:16:50.510Z,3.90
2022-12-27T05:22:19.676Z,10.20
2022-12-27T05:27:29.691Z,4.20
2022-12-27T05:32:39.391Z,6.60
2022-12-27T05:37:54.702Z,6.70
2022-12-27T05:43:05.931Z,7.90
2022-12-27T05:48:15.552Z,3.80
2022-12-27T05:53:25.276Z,6.40
2022-12-27T05:58:35.132Z,4.30
2022-12-27T06:03:45.324Z,7.80
2022-12-27T06:08:55.915Z,7.70
2022-12-27T06:14:05.538Z,4.80
2022-12-27T06:19:15.354Z,5.70
2022-12-27T06:24:32.291Z,4.70
2022-12-27T06:29:42.599Z,6.20
2022-12-27T06:34:52.315Z,5.70
2022-12-27T06:40:02.174Z,3.30
2022-12-27T06:45:13.907Z,11.10
2022-12-27T06:50:23.814Z,6.90
2022-12-27T06:55:33.694Z,7.00
2022-12-27T07:00:44.235Z,12.00
2022-12-27T07:05:54.281Z,19.50
2022-12-27T07:11:08.657Z,22.20
2022-12-27T07:16:21.194Z,21.60
2022-12-27T07:21:32.594Z,16.80
2022-12-27T07:26:43.162Z,8.90
2022-12-27T07:31:55.152Z,18.70
2022-12-27T07:37:05.049Z,5.70
2022-12-27T07:42:15.213Z,10.10
2022-12-27T07:47:24.911Z,8.50
2022-12-27T07:52:36.155Z,13.70
2022-12-27T07:57:45.942Z,25.50
2022-12-27T08:02:55.838Z,11.30
2022-12-27T08:08:06.300Z,11.70
2022-12-27T08:13:15.853Z,8.00
2022-12-27T08:18:25.594Z,15.90
2022-12-27T08:23:35.271Z,14.40
2022-12-27T08:28:45.088Z,17.70
2022-12-27T08:33:58.433Z,12.90
2022-12-27T08:39:09.145Z,16.40
2022-12-27T08:44:19.415Z,12.80
2022-12-27T08:49:29.089Z,10.70
2022-12-27T08:54:40.050Z,12.00
2022-12-27T08:59:50.015Z,12.40
2022-12-27T09:05:00.226Z,19.10
2022-12-27T09:10:12.366Z,20.80
2022-12-27T09:15:22.286Z,19.50
